sensor_id;sensor_type;location;lat;lon;timestamp;pressure;altitude;pressure_sealevel;temperature;humidity
18533;BME280;9396;51.510;11.934;2023-04-30T00:00:03;101053.16;;;9.18;94.48
18533;BME280;9396;51.510;11.934;2023-04-30T00:02:32;101058.00;;;9.13;94.98
18533;BME280;9396;51.510;11.934;2023-04-30T00:04:59;101057.78;;;9.05;95.10
18533;BME280;9396;51.510;11.934;2023-04-30T00:07:27;101052.59;;;8.83;95.79
18533;BME280;9396;51.510;11.934;2023-04-30T00:09:54;101068.13;;;8.87;95.78
18533;BME280;9396;51.510;11.934;2023-04-30T00:12:20;101063.09;;;8.84;95.66
18533;BME280;9396;51.510;11.934;2023-04-30T00:14:47;101060.13;;;8.67;95.95
18533;BME280;9396;51.510;11.934;2023-04-30T00:17:14;101066.41;;;8.54;96.01
18533;BME280;9396;51.510;11.934;2023-04-30T00:19:41;101073.69;;;8.52;96.56
18533;BME280;9396;51.510;11.934;2023-04-30T00:22:08;101077.97;;;8.64;96.61
18533;BME280;9396;51.510;11.934;2023-04-30T00:24:36;101073.25;;;8.68;95.93
18533;BME280;9396;51.510;11.934;2023-04-30T00:27:02;101091.69;;;8.70;95.59
18533;BME280;9396;51.510;11.934;2023-04-30T00:29:29;101087.25;;;8.70;95.27
18533;BME280;9396;51.510;11.934;2023-04-30T00:31:56;101090.97;;;8.68;95.93
18533;BME280;9396;51.510;11.934;2023-04-30T00:34:22;101086.88;;;8.63;95.60
18533;BME280;9396;51.510;11.934;2023-04-30T00:36:49;101086.88;;;8.63;96.04
18533;BME280;9396;51.510;11.934;2023-04-30T00:39:16;101091.81;;;8.68;96.03
18533;BME280;9396;51.510;11.934;2023-04-30T00:41:44;101097.72;;;8.72;95.55
18533;BME280;9396;51.510;11.934;2023-04-30T00:44:11;101090.97;;;8.68;95.13
18533;BME280;9396;51.510;11.934;2023-04-30T00:46:37;101098.34;;;8.64;95.57
18533;BME280;9396;51.510;11.934;2023-04-30T00:49:05;101086.22;;;8.39;95.69
18533;BME280;9396;51.510;11.934;2023-04-30T00:51:32;101096.22;;;8.47;96.12
18533;BME280;9396;51.510;11.934;2023-04-30T00:54:00;101103.78;;;8.51;95.67
18533;BME280;9396;51.510;11.934;2023-04-30T00:56:27;101102.84;;;8.41;95.52
18533;BME280;9396;51.510;11.934;2023-04-30T00:58:56;101116.97;;;8.31;96.14
18533;BME280;9396;51.510;11.934;2023-04-30T01:01:23;101103.94;;;8.39;96.54
18533;BME280;9396;51.510;11.934;2023-04-30T01:03:50;101112.00;;;8.26;95.49
18533;BME280;9396;51.510;11.934;2023-04-30T01:06:17;101111.06;;;8.27;96.11
18533;BME280;9396;51.510;11.934;2023-04-30T01:08:44;101111.06;;;8.27;96.12
18533;BME280;9396;51.510;11.934;2023-04-30T01:11:21;101112.56;;;8.19;95.94
18533;BME280;9396;51.510;11.934;2023-04-30T01:13:57;101116.38;;;8.27;96.69
18533;BME280;9396;51.510;11.934;2023-04-30T01:16:29;101116.59;;;8.24;96.28
18533;BME280;9396;51.510;11.934;2023-04-30T01:19:02;101122.38;;;8.29;96.27
18533;BME280;9396;51.510;11.934;2023-04-30T01:21:31;101117.69;;;8.33;96.11
18533;BME280;9396;51.510;11.934;2023-04-30T01:24:26;101123.47;;;8.38;96.06
18533;BME280;9396;51.510;11.934;2023-04-30T01:27:06;101130.56;;;8.37;95.85
18533;BME280;9396;51.510;11.934;2023-04-30T01:29:40;101131.28;;;8.39;95.61
18533;BME280;9396;51.510;11.934;2023-04-30T01:32:09;101132.22;;;8.38;95.24
18533;BME280;9396;51.510;11.934;2023-04-30T01:34:35;101129.59;;;8.38;94.48
18533;BME280;9396;51.510;11.934;2023-04-30T01:37:12;101123.47;;;8.27;94.49
18533;BME280;9396;51.510;11.934;2023-04-30T01:40:07;101126.19;;;8.14;94.23
18533;BME280;9396;51.510;11.934;2023-04-30T01:42:41;101140.41;;;7.91;94.83
18533;BME280;9396;51.510;11.934;2023-04-30T01:45:26;101132.22;;;7.83;94.46
18533;BME280;9396;51.510;11.934;2023-04-30T01:48:07;101140.94;;;7.50;96.39
18533;BME280;9396;51.510;11.934;2023-04-30T01:50:45;101137.50;;;7.37;97.38
18533;BME280;9396;51.510;11.934;2023-04-30T01:53:17;101142.69;;;7.39;97.46
18533;BME280;9396;51.510;11.934;2023-04-30T01:55:49;101152.72;;;7.23;98.14
18533;BME280;9396;51.510;11.934;2023-04-30T01:58:19;101156.34;;;7.22;98.88
18533;BME280;9396;51.510;11.934;2023-04-30T02:00:49;101164.09;;;7.12;100.00
18533;BME280;9396;51.510;11.934;2023-04-30T02:03:16;101160.41;;;7.15;100.00
18533;BME280;9396;51.510;11.934;2023-04-30T02:05:43;101164.88;;;7.25;99.99
18533;BME280;9396;51.510;11.934;2023-04-30T02:08:09;101167.28;;;7.28;99.91
18533;BME280;9396;51.510;11.934;2023-04-30T02:10:36;101175.66;;;7.35;100.00
18533;BME280;9396;51.510;11.934;2023-04-30T02:13:03;101183.59;;;7.35;99.52
18533;BME280;9396;51.510;11.934;2023-04-30T02:15:29;101190.44;;;7.37;98.87
18533;BME280;9396;51.510;11.934;2023-04-30T02:17:57;101180.63;;;7.50;98.76
18533;BME280;9396;51.510;11.934;2023-04-30T02:20:24;101193.38;;;7.56;98.26
18533;BME280;9396;51.510;11.934;2023-04-30T02:22:52;101185.56;;;7.55;97.96
18533;BME280;9396;51.510;11.934;2023-04-30T02:25:18;101196.47;;;7.39;97.48
18533;BME280;9396;51.510;11.934;2023-04-30T02:27:45;101187.22;;;7.45;97.51
18533;BME280;9396;51.510;11.934;2023-04-30T02:30:12;101186.88;;;7.49;97.82
18533;BME280;9396;51.510;11.934;2023-04-30T02:32:38;101192.03;;;7.40;97.90
18533;BME280;9396;51.510;11.934;2023-04-30T02:35:07;101189.75;;;7.46;98.31
18533;BME280;9396;51.510;11.934;2023-04-30T02:37:33;101191.59;;;7.57;97.78
18533;BME280;9396;51.510;11.934;2023-04-30T02:40:00;101195.91;;;7.47;98.38
18533;BME280;9396;51.510;11.934;2023-04-30T02:42:27;101198.47;;;7.59;98.12
18533;BME280;9396;51.510;11.934;2023-04-30T02:44:53;101194.72;;;7.62;98.35
18533;BME280;9396;51.510;11.934;2023-04-30T02:47:20;101199.09;;;7.63;97.48
18533;BME280;9396;51.510;11.934;2023-04-30T02:49:47;101199.41;;;7.47;96.73
18533;BME280;9396;51.510;11.934;2023-04-30T02:52:15;101197.25;;;7.52;97.61
18533;BME280;9396;51.510;11.934;2023-04-30T02:54:41;101198.34;;;7.61;96.84
18533;BME280;9396;51.510;11.934;2023-04-30T02:57:08;101197.50;;;7.60;96.68
18533;BME280;9396;51.510;11.934;2023-04-30T02:59:35;101201.94;;;7.60;97.23
18533;BME280;9396;51.510;11.934;2023-04-30T03:02:03;101205.19;;;7.52;96.25
18533;BME280;9396;51.510;11.934;2023-04-30T03:04:29;101207.41;;;7.46;96.90
18533;BME280;9396;51.510;11.934;2023-04-30T03:06:56;101208.97;;;7.37;95.91
18533;BME280;9396;51.510;11.934;2023-04-30T03:09:26;101201.63;;;7.17;96.56
18533;BME280;9396;51.510;11.934;2023-04-30T03:11:52;101207.31;;;7.00;97.47
18533;BME280;9396;51.510;11.934;2023-04-30T03:14:19;101219.09;;;6.84;97.58
18533;BME280;9396;51.510;11.934;2023-04-30T03:16:45;101213.94;;;6.82;98.18
18533;BME280;9396;51.510;11.934;2023-04-30T03:19:12;101211.03;;;6.98;97.64
18533;BME280;9396;51.510;11.934;2023-04-30T03:21:39;101210.47;;;7.05;98.32
18533;BME280;9396;51.510;11.934;2023-04-30T03:24:05;101212.91;;;7.08;97.92
18533;BME280;9396;51.510;11.934;2023-04-30T03:26:33;101224.66;;;7.04;97.58
18533;BME280;9396;51.510;11.934;2023-04-30T03:29:00;101219.25;;;7.06;97.00
18533;BME280;9396;51.510;11.934;2023-04-30T03:31:27;101211.59;;;7.14;96.88
18533;BME280;9396;51.510;11.934;2023-04-30T03:33:53;101213.31;;;7.15;97.43
18533;BME280;9396;51.510;11.934;2023-04-30T03:36:20;101223.50;;;7.08;96.02
18533;BME280;9396;51.510;11.934;2023-04-30T03:38:46;101232.88;;;6.89;96.60
18533;BME280;9396;51.510;11.934;2023-04-30T03:41:13;101238.34;;;6.86;95.94
18533;BME280;9396;51.510;11.934;2023-04-30T03:43:41;101244.50;;;6.86;96.14
18533;BME280;9396;51.510;11.934;2023-04-30T03:46:08;101243.22;;;6.92;97.04
18533;BME280;9396;51.510;11.934;2023-04-30T03:48:34;101248.50;;;6.92;96.61
18533;BME280;9396;51.510;11.934;2023-04-30T03:51:01;101248.75;;;6.89;96.15
18533;BME280;9396;51.510;11.934;2023-04-30T03:53:27;101250.19;;;6.93;96.85
18533;BME280;9396;51.510;11.934;2023-04-30T03:55:54;101253.69;;;6.93;95.56
18533;BME280;9396;51.510;11.934;2023-04-30T03:58:21;101249.75;;;6.99;96.66
18533;BME280;9396;51.510;11.934;2023-04-30T04:00:49;101254.69;;;7.03;96.60
18533;BME280;9396;51.510;11.934;2023-04-30T04:03:16;101239.19;;;6.99;96.85
18533;BME280;9396;51.510;11.934;2023-04-30T04:05:43;101252.69;;;7.07;96.98
18533;BME280;9396;51.510;11.934;2023-04-30T04:08:10;101258.09;;;7.05;95.55
18533;BME280;9396;51.510;11.934;2023-04-30T04:10:37;101252.28;;;7.00;95.42
18533;BME280;9396;51.510;11.934;2023-04-30T04:13:04;101263.22;;;6.96;96.06
18533;BME280;9396;51.510;11.934;2023-04-30T04:15:31;101268.69;;;6.93;96.06
18533;BME280;9396;51.510;11.934;2023-04-30T04:17:59;101271.56;;;6.90;96.01
18533;BME280;9396;51.510;11.934;2023-04-30T04:20:25;101272.00;;;6.84;96.25
18533;BME280;9396;51.510;11.934;2023-04-30T04:22:54;101273.25;;;6.78;96.41
18533;BME280;9396;51.510;11.934;2023-04-30T04:25:20;101270.34;;;6.70;97.64
18533;BME280;9396;51.510;11.934;2023-04-30T04:27:49;101279.94;;;6.84;97.87
18533;BME280;9396;51.510;11.934;2023-04-30T04:30:16;101282.16;;;6.90;96.68
18533;BME280;9396;51.510;11.934;2023-04-30T04:32:43;101274.72;;;6.95;96.76
18533;BME280;9396;51.510;11.934;2023-04-30T04:35:15;101279.38;;;6.91;97.26
18533;BME280;9396;51.510;11.934;2023-04-30T04:37:43;101281.72;;;6.96;97.14
18533;BME280;9396;51.510;11.934;2023-04-30T04:40:10;101290.09;;;6.90;98.02
18533;BME280;9396;51.510;11.934;2023-04-30T04:42:37;101284.44;;;6.94;97.71
18533;BME280;9396;51.510;11.934;2023-04-30T04:45:04;101290.72;;;6.93;98.03
18533;BME280;9396;51.510;11.934;2023-04-30T04:47:32;101292.34;;;7.07;98.51
18533;BME280;9396;51.510;11.934;2023-04-30T04:49:58;101294.97;;;7.19;98.17
18533;BME280;9396;51.510;11.934;2023-04-30T04:52:26;101300.09;;;7.33;97.74
18533;BME280;9396;51.510;11.934;2023-04-30T04:54:53;101298.81;;;7.39;97.94
18533;BME280;9396;51.510;11.934;2023-04-30T04:57:20;101292.25;;;7.21;97.31
18533;BME280;9396;51.510;11.934;2023-04-30T04:59:47;101301.44;;;7.28;98.41
18533;BME280;9396;51.510;11.934;2023-04-30T05:02:13;101300.22;;;7.08;98.44
18533;BME280;9396;51.510;11.934;2023-04-30T05:04:40;101301.16;;;7.07;98.46
18533;BME280;9396;51.510;11.934;2023-04-30T05:07:07;101306.44;;;7.07;99.11
18533;BME280;9396;51.510;11.934;2023-04-30T05:09:35;101306.22;;;7.10;98.89
18533;BME280;9396;51.510;11.934;2023-04-30T05:12:01;101312.34;;;7.11;100.00
18533;BME280;9396;51.510;11.934;2023-04-30T05:14:28;101309.84;;;6.97;100.00
18533;BME280;9396;51.510;11.934;2023-04-30T05:16:55;101317.41;;;7.14;100.00
18533;BME280;9396;51.510;11.934;2023-04-30T05:19:21;101320.41;;;7.09;100.00
18533;BME280;9396;51.510;11.934;2023-04-30T05:21:48;101318.88;;;7.30;100.00
18533;BME280;9396;51.510;11.934;2023-04-30T05:24:15;101317.78;;;7.45;100.00
18533;BME280;9396;51.510;11.934;2023-04-30T05:26:43;101323.03;;;7.58;100.00
18533;BME280;9396;51.510;11.934;2023-04-30T05:29:10;101321.63;;;7.76;98.76
18533;BME280;9396;51.510;11.934;2023-04-30T05:31:37;101325.03;;;7.78;97.52
18533;BME280;9396;51.510;11.934;2023-04-30T05:34:04;101323.03;;;7.93;96.34
18533;BME280;9396;51.510;11.934;2023-04-30T05:36:30;101331.25;;;8.24;96.04
18533;BME280;9396;51.510;11.934;2023-04-30T05:38:57;101332.31;;;8.45;94.35
18533;BME280;9396;51.510;11.934;2023-04-30T05:41:24;101327.97;;;8.55;93.43
18533;BME280;9396;51.510;11.934;2023-04-30T05:43:52;101323.47;;;9.44;93.59
18533;BME280;9396;51.510;11.934;2023-04-30T05:46:18;101313.31;;;10.44;89.11
18533;BME280;9396;51.510;11.934;2023-04-30T05:48:45;101312.47;;;11.44;85.26
18533;BME280;9396;51.510;11.934;2023-04-30T05:51:12;101310.09;;;13.02;79.72
18533;BME280;9396;51.510;11.934;2023-04-30T05:53:39;101306.38;;;14.19;74.94
18533;BME280;9396;51.510;11.934;2023-04-30T05:56:06;101318.59;;;14.82;70.98
18533;BME280;9396;51.510;11.934;2023-04-30T05:58:33;101308.78;;;16.23;68.33
18533;BME280;9396;51.510;11.934;2023-04-30T06:01:01;101304.09;;;16.08;66.09
18533;BME280;9396;51.510;11.934;2023-04-30T06:03:27;101307.16;;;17.08;67.16
18533;BME280;9396;51.510;11.934;2023-04-30T06:05:54;101304.16;;;17.42;65.41
18533;BME280;9396;51.510;11.934;2023-04-30T06:08:21;101309.13;;;16.44;65.36
18533;BME280;9396;51.510;11.934;2023-04-30T06:10:48;101314.34;;;16.53;65.04
18533;BME280;9396;51.510;11.934;2023-04-30T06:13:15;101316.31;;;16.43;65.71
18533;BME280;9396;51.510;11.934;2023-04-30T06:15:42;101321.16;;;16.88;64.49
18533;BME280;9396;51.510;11.934;2023-04-30T06:18:11;101320.53;;;16.62;64.56
18533;BME280;9396;51.510;11.934;2023-04-30T06:20:38;101323.03;;;16.79;63.59
18533;BME280;9396;51.510;11.934;2023-04-30T06:23:05;101313.84;;;17.82;63.41
18533;BME280;9396;51.510;11.934;2023-04-30T06:25:32;101328.69;;;17.08;63.79
18533;BME280;9396;51.510;11.934;2023-04-30T06:27:58;101318.38;;;17.59;63.89
18533;BME280;9396;51.510;11.934;2023-04-30T06:30:25;101315.75;;;18.04;61.12
18533;BME280;9396;51.510;11.934;2023-04-30T06:32:52;101313.56;;;18.45;60.23
18533;BME280;9396;51.510;11.934;2023-04-30T06:35:21;101318.56;;;19.29;58.17
18533;BME280;9396;51.510;11.934;2023-04-30T06:37:47;101320.25;;;19.15;59.94
18533;BME280;9396;51.510;11.934;2023-04-30T06:40:14;101317.44;;;19.08;59.17
18533;BME280;9396;51.510;11.934;2023-04-30T06:42:40;101320.78;;;18.96;60.50
18533;BME280;9396;51.510;11.934;2023-04-30T06:45:08;101315.22;;;19.27;59.30
18533;BME280;9396;51.510;11.934;2023-04-30T06:47:35;101312.63;;;19.33;59.36
18533;BME280;9396;51.510;11.934;2023-04-30T06:50:03;101318.00;;;18.75;58.68
18533;BME280;9396;51.510;11.934;2023-04-30T06:52:31;101325.44;;;17.13;60.66
18533;BME280;9396;51.510;11.934;2023-04-30T06:54:57;101332.47;;;16.19;62.67
18533;BME280;9396;51.510;11.934;2023-04-30T06:57:25;101342.47;;;15.01;63.93
18533;BME280;9396;51.510;11.934;2023-04-30T06:59:51;101327.25;;;16.18;66.04
18533;BME280;9396;51.510;11.934;2023-04-30T07:02:18;101322.34;;;16.77;63.28
18533;BME280;9396;51.510;11.934;2023-04-30T07:04:45;101318.72;;;17.64;61.99
18533;BME280;9396;51.510;11.934;2023-04-30T07:07:11;101313.41;;;18.01;59.43
18533;BME280;9396;51.510;11.934;2023-04-30T07:09:39;101322.47;;;17.47;60.39
18533;BME280;9396;51.510;11.934;2023-04-30T07:12:06;101312.78;;;17.91;61.88
18533;BME280;9396;51.510;11.934;2023-04-30T07:14:33;101323.56;;;17.91;59.34
18533;BME280;9396;51.510;11.934;2023-04-30T07:16:59;101329.00;;;17.60;61.24
18533;BME280;9396;51.510;11.934;2023-04-30T07:19:26;101328.69;;;17.00;62.76
18533;BME280;9396;51.510;11.934;2023-04-30T07:21:53;101338.22;;;17.19;62.67
18533;BME280;9396;51.510;11.934;2023-04-30T07:24:19;101330.25;;;17.34;61.83
18533;BME280;9396;51.510;11.934;2023-04-30T07:26:47;101325.00;;;18.01;61.84
18533;BME280;9396;51.510;11.934;2023-04-30T07:29:14;101322.38;;;17.93;61.46
18533;BME280;9396;51.510;11.934;2023-04-30T07:31:40;101330.09;;;17.66;59.67
18533;BME280;9396;51.510;11.934;2023-04-30T07:34:07;101323.47;;;18.30;60.77
18533;BME280;9396;51.510;11.934;2023-04-30T07:36:34;101328.22;;;16.89;59.45
18533;BME280;9396;51.510;11.934;2023-04-30T07:39:02;101320.25;;;17.11;61.05
18533;BME280;9396;51.510;11.934;2023-04-30T07:41:29;101318.69;;;18.17;61.01
18533;BME280;9396;51.510;11.934;2023-04-30T07:43:57;101313.03;;;18.27;61.32
18533;BME280;9396;51.510;11.934;2023-04-30T07:46:24;101324.28;;;17.46;60.94
18533;BME280;9396;51.510;11.934;2023-04-30T07:48:51;101336.19;;;17.21;61.59
18533;BME280;9396;51.510;11.934;2023-04-30T07:51:17;101326.63;;;16.48;59.29
18533;BME280;9396;51.510;11.934;2023-04-30T07:53:44;101335.97;;;16.12;64.27
18533;BME280;9396;51.510;11.934;2023-04-30T07:56:11;101328.09;;;16.26;63.68
18533;BME280;9396;51.510;11.934;2023-04-30T07:58:37;101336.50;;;16.39;64.94
18533;BME280;9396;51.510;11.934;2023-04-30T08:01:06;101335.00;;;16.29;65.36
18533;BME280;9396;51.510;11.934;2023-04-30T08:03:32;101332.56;;;16.98;62.98
18533;BME280;9396;51.510;11.934;2023-04-30T08:05:59;101341.78;;;15.83;62.11
18533;BME280;9396;51.510;11.934;2023-04-30T08:08:26;101341.44;;;15.70;61.77
18533;BME280;9396;51.510;11.934;2023-04-30T08:10:52;101347.91;;;15.59;63.05
18533;BME280;9396;51.510;11.934;2023-04-30T08:13:19;101348.25;;;15.23;63.38
18533;BME280;9396;51.510;11.934;2023-04-30T08:15:46;101350.91;;;15.15;65.29
18533;BME280;9396;51.510;11.934;2023-04-30T08:18:14;101337.03;;;15.19;63.75
18533;BME280;9396;51.510;11.934;2023-04-30T08:20:40;101340.28;;;15.88;62.35
18533;BME280;9396;51.510;11.934;2023-04-30T08:23:07;101341.09;;;14.97;63.06
18533;BME280;9396;51.510;11.934;2023-04-30T08:25:34;101346.19;;;14.83;63.41
18533;BME280;9396;51.510;11.934;2023-04-30T08:28:01;101341.69;;;14.05;66.94
18533;BME280;9396;51.510;11.934;2023-04-30T08:30:27;101346.88;;;14.85;67.67
18533;BME280;9396;51.510;11.934;2023-04-30T08:32:54;101343.78;;;14.46;65.10
18533;BME280;9396;51.510;11.934;2023-04-30T08:35:22;101347.84;;;14.33;65.94
18533;BME280;9396;51.510;11.934;2023-04-30T08:37:49;101347.81;;;13.53;68.50
18533;BME280;9396;51.510;11.934;2023-04-30T08:40:16;101347.19;;;14.21;69.37
18533;BME280;9396;51.510;11.934;2023-04-30T08:42:45;101350.41;;;14.25;67.44
18533;BME280;9396;51.510;11.934;2023-04-30T08:45:14;101347.03;;;14.83;64.19
18533;BME280;9396;51.510;11.934;2023-04-30T08:47:42;101337.22;;;14.66;63.41
18533;BME280;9396;51.510;11.934;2023-04-30T08:50:10;101342.03;;;14.88;65.48
18533;BME280;9396;51.510;11.934;2023-04-30T08:52:39;101340.13;;;15.07;62.33
18533;BME280;9396;51.510;11.934;2023-04-30T08:55:07;101338.81;;;14.77;64.00
18533;BME280;9396;51.510;11.934;2023-04-30T08:57:35;101335.19;;;15.20;65.17
18533;BME280;9396;51.510;11.934;2023-04-30T09:00:03;101336.69;;;14.88;66.85
18533;BME280;9396;51.510;11.934;2023-04-30T09:02:31;101338.63;;;15.04;67.49
18533;BME280;9396;51.510;11.934;2023-04-30T09:04:58;101335.19;;;15.20;65.02
18533;BME280;9396;51.510;11.934;2023-04-30T09:07:25;101327.84;;;15.22;65.88
18533;BME280;9396;51.510;11.934;2023-04-30T09:09:54;101332.75;;;15.34;65.91
18533;BME280;9396;51.510;11.934;2023-04-30T09:12:22;101334.69;;;15.24;66.71
18533;BME280;9396;51.510;11.934;2023-04-30T09:15:00;101337.34;;;14.82;65.47
18533;BME280;9396;51.510;11.934;2023-04-30T09:17:28;101336.28;;;14.75;66.86
18533;BME280;9396;51.510;11.934;2023-04-30T09:20:05;101331.19;;;14.64;66.74
18533;BME280;9396;51.510;11.934;2023-04-30T09:22:33;101337.59;;;14.71;67.00
18533;BME280;9396;51.510;11.934;2023-04-30T09:25:01;101339.94;;;14.74;66.23
18533;BME280;9396;51.510;11.934;2023-04-30T09:27:27;101339.34;;;14.37;64.40
18533;BME280;9396;51.510;11.934;2023-04-30T09:29:54;101339.47;;;14.53;68.09
18533;BME280;9396;51.510;11.934;2023-04-30T09:32:21;101335.31;;;14.59;68.18
18533;BME280;9396;51.510;11.934;2023-04-30T09:34:47;101336.78;;;14.53;64.71
18533;BME280;9396;51.510;11.934;2023-04-30T09:37:14;101338.28;;;14.30;65.38
18533;BME280;9396;51.510;11.934;2023-04-30T09:39:48;101336.81;;;14.18;64.15
18533;BME280;9396;51.510;11.934;2023-04-30T09:42:17;101341.09;;;14.11;63.00
18533;BME280;9396;51.510;11.934;2023-04-30T09:44:44;101345.28;;;13.96;65.07
18533;BME280;9396;51.510;11.934;2023-04-30T09:47:13;101339.50;;;14.36;65.04
18533;BME280;9396;51.510;11.934;2023-04-30T09:49:41;101338.41;;;14.46;63.66
18533;BME280;9396;51.510;11.934;2023-04-30T09:52:09;101326.44;;;14.33;61.70
18533;BME280;9396;51.510;11.934;2023-04-30T09:54:37;101331.31;;;14.02;62.93
18533;BME280;9396;51.510;11.934;2023-04-30T09:57:04;101333.50;;;14.07;64.31
18533;BME280;9396;51.510;11.934;2023-04-30T09:59:36;101333.22;;;14.10;64.05
18533;BME280;9396;51.510;11.934;2023-04-30T10:02:05;101339.63;;;13.99;62.30
18533;BME280;9396;51.510;11.934;2023-04-30T10:04:33;101332.44;;;13.82;62.32
18533;BME280;9396;51.510;11.934;2023-04-30T10:07:03;101338.81;;;13.81;62.79
18533;BME280;9396;51.510;11.934;2023-04-30T10:09:37;101328.25;;;13.97;63.00
18533;BME280;9396;51.510;11.934;2023-04-30T10:12:07;101329.56;;;13.75;60.75
18533;BME280;9396;51.510;11.934;2023-04-30T10:14:44;101325.44;;;13.81;61.14
18533;BME280;9396;51.510;11.934;2023-04-30T10:17:13;101317.63;;;13.70;63.11
18533;BME280;9396;51.510;11.934;2023-04-30T10:19:45;101315.31;;;13.75;63.43
18533;BME280;9396;51.510;11.934;2023-04-30T10:22:13;101316.34;;;13.91;64.59
18533;BME280;9396;51.510;11.934;2023-04-30T10:24:41;101320.00;;;13.90;62.79
18533;BME280;9396;51.510;11.934;2023-04-30T10:27:09;101315.44;;;14.01;61.10
18533;BME280;9396;51.510;11.934;2023-04-30T10:29:36;101311.72;;;14.19;61.63
18533;BME280;9396;51.510;11.934;2023-04-30T10:32:04;101316.66;;;14.06;62.69
18533;BME280;9396;51.510;11.934;2023-04-30T10:34:39;101309.59;;;13.87;63.71
18533;BME280;9396;51.510;11.934;2023-04-30T10:37:13;101302.81;;;13.93;63.76
18533;BME280;9396;51.510;11.934;2023-04-30T10:39:42;101307.69;;;13.62;61.60
18533;BME280;9396;51.510;11.934;2023-04-30T10:42:09;101304.56;;;13.22;61.62
18533;BME280;9396;51.510;11.934;2023-04-30T10:44:38;101300.00;;;13.32;60.16
18533;BME280;9396;51.510;11.934;2023-04-30T10:47:06;101302.50;;;13.34;61.88
18533;BME280;9396;51.510;11.934;2023-04-30T10:49:33;101301.53;;;13.35;61.87
18533;BME280;9396;51.510;11.934;2023-04-30T10:52:02;101296.66;;;13.48;62.23
18533;BME280;9396;51.510;11.934;2023-04-30T10:54:30;101297.28;;;13.15;63.56
18533;BME280;9396;51.510;11.934;2023-04-30T10:57:09;101293.09;;;13.30;63.64
18533;BME280;9396;51.510;11.934;2023-04-30T10:59:37;101285.09;;;13.03;60.57
18533;BME280;9396;51.510;11.934;2023-04-30T11:02:03;101284.09;;;13.31;64.94
18533;BME280;9396;51.510;11.934;2023-04-30T11:04:32;101292.69;;;13.52;63.02
18533;BME280;9396;51.510;11.934;2023-04-30T11:07:06;101283.59;;;13.45;62.33
18533;BME280;9396;51.510;11.934;2023-04-30T11:09:36;101144.09;;;12.52;61.94
18533;BME280;9396;51.510;11.934;2023-04-30T11:12:03;101276.22;;;13.12;63.22
18533;BME280;9396;51.510;11.934;2023-04-30T11:14:33;101276.78;;;13.33;63.39
18533;BME280;9396;51.510;11.934;2023-04-30T11:17:00;101277.13;;;13.65;61.80
18533;BME280;9396;51.510;11.934;2023-04-30T11:19:27;101185.59;;;12.91;61.80
18533;BME280;9396;51.510;11.934;2023-04-30T11:22:18;101272.16;;;12.98;62.78
18533;BME280;9396;51.510;11.934;2023-04-30T11:24:51;101263.81;;;13.38;63.11
18533;BME280;9396;51.510;11.934;2023-04-30T11:27:19;101264.13;;;13.35;62.19
18533;BME280;9396;51.510;11.934;2023-04-30T11:29:46;101246.53;;;13.32;62.29
18533;BME280;9396;51.510;11.934;2023-04-30T11:32:15;101254.56;;;13.50;63.10
18533;BME280;9396;51.510;11.934;2023-04-30T11:34:42;101251.84;;;13.59;65.37
18533;BME280;9396;51.510;11.934;2023-04-30T11:37:11;101250.31;;;13.74;62.33
18533;BME280;9396;51.510;11.934;2023-04-30T11:39:40;101254.44;;;13.86;61.37
18533;BME280;9396;51.510;11.934;2023-04-30T11:42:07;101252.53;;;13.79;62.02
18533;BME280;9396;51.510;11.934;2023-04-30T11:44:34;101254.19;;;13.80;61.67
18533;BME280;9396;51.510;11.934;2023-04-30T11:47:02;101248.09;;;13.52;61.11
18533;BME280;9396;51.510;11.934;2023-04-30T11:49:30;101238.00;;;13.29;61.49
18533;BME280;9396;51.510;11.934;2023-04-30T11:51:57;101237.41;;;13.35;62.15
18533;BME280;9396;51.510;11.934;2023-04-30T11:54:24;101238.75;;;13.56;63.13
18533;BME280;9396;51.510;11.934;2023-04-30T11:56:52;101235.16;;;13.48;63.84
18533;BME280;9396;51.510;11.934;2023-04-30T11:59:19;101233.41;;;13.39;59.64
18533;BME280;9396;51.510;11.934;2023-04-30T12:01:45;101224.94;;;13.43;59.39
18533;BME280;9396;51.510;11.934;2023-04-30T12:04:12;101231.19;;;13.17;61.32
18533;BME280;9396;51.510;11.934;2023-04-30T12:06:40;101227.84;;;13.32;62.84
18533;BME280;9396;51.510;11.934;2023-04-30T12:09:07;101230.53;;;13.05;63.71
18533;BME280;9396;51.510;11.934;2023-04-30T12:11:37;101225.13;;;13.15;64.69
18533;BME280;9396;51.510;11.934;2023-04-30T12:14:06;101226.59;;;13.27;65.43
18533;BME280;9396;51.510;11.934;2023-04-30T12:16:39;101226.94;;;13.41;63.95
18533;BME280;9396;51.510;11.934;2023-04-30T12:19:06;101233.56;;;13.55;64.41
18533;BME280;9396;51.510;11.934;2023-04-30T12:21:34;101228.16;;;13.29;63.68
18533;BME280;9396;51.510;11.934;2023-04-30T12:24:01;101224.63;;;13.46;64.49
18533;BME280;9396;51.510;11.934;2023-04-30T12:26:33;101222.06;;;13.54;62.70
18533;BME280;9396;51.510;11.934;2023-04-30T12:29:02;101224.94;;;13.61;62.51
18533;BME280;9396;51.510;11.934;2023-04-30T12:31:31;101219.00;;;13.67;62.19
18533;BME280;9396;51.510;11.934;2023-04-30T12:34:02;101219.66;;;13.69;59.95
18533;BME280;9396;51.510;11.934;2023-04-30T12:36:30;101218.16;;;13.49;61.19
18533;BME280;9396;51.510;11.934;2023-04-30T12:39:02;101214.78;;;13.47;60.86
18533;BME280;9396;51.510;11.934;2023-04-30T12:41:38;101219.81;;;13.50;61.22
18533;BME280;9396;51.510;11.934;2023-04-30T12:44:16;101217.09;;;13.59;61.62
18533;BME280;9396;51.510;11.934;2023-04-30T12:46:44;101212.97;;;13.65;60.61
18533;BME280;9396;51.510;11.934;2023-04-30T12:49:11;101213.34;;;13.70;62.38
18533;BME280;9396;51.510;11.934;2023-04-30T12:51:38;101202.09;;;13.84;61.79
18533;BME280;9396;51.510;11.934;2023-04-30T12:54:07;101210.13;;;13.84;60.09
18533;BME280;9396;51.510;11.934;2023-04-30T12:56:34;101172.72;;;13.49;59.51
18533;BME280;9396;51.510;11.934;2023-04-30T12:59:01;101211.44;;;13.62;57.82